Terminal Aerodrome Forecast
Issued by NWS

Home | Current Version | Previous Version | Text Only | Print | Product List | Glossary On
Versions: 1 2 3 4 5 6 7 8 9 10 11 12
000
FTUS44 KLIX 210521
TAFGPT
TAF
KGPT 210521Z 2106/2206 10009KT P6SM SCT025 BKN150 PROB30 2115/2117
      4SM -TSRA BKN025CB BKN030
     FM211700 11013G23KT P6SM SCT030 BKN080 PROB30 2117/2123 4SM
      -TSRA BKN020CB
     FM220500 12011G20KT P6SM SCT025 BKN050 PROB30 2205/2206 2SM
      -TSRA BKN025CB=

USA.gov is the U.S. government's official web portal to all federal, state and local government web resources and services.